Time,TemperatureF,DewpointF,PressureIn,WindDirection,WindDirectionDegrees,WindSpeedMPH,WindSpeedGustMPH,Humidity,HourlyPrecipIn,Conditions,Clouds,dailyrainin,SoftwareType,DateUTC
2013-09-12 04:08:00,69.3,64.2,30.02,North,0,0.0,0.0,84,0.00,,,0.00,WUHU21623XXSP,2013-09-12 08:08:00,
2013-09-12 04:09:00,69.3,64.2,30.02,NW,315,0.0,0.0,84,0.00,,,0.00,WUHU21623XXSP,2013-09-12 08:09:00,
2013-09-12 04:14:00,69.3,64.2,30.01,NW,315,0.0,0.0,84,0.00,,,0.00,WUHU21623XXSP,2013-09-12 08:14:00,
2013-09-12 04:19:00,69.3,64.2,30.01,NW,315,0.0,0.0,84,0.18,,,0.18,WUHU21623XXSP,2013-09-12 08:19:00,
2013-09-12 04:24:00,69.3,64.2,30.00,NW,315,0.0,0.0,84,0.26,,,0.26,WUHU21623XXSP,2013-09-12 08:24:00,
2013-09-12 04:29:00,69.1,64.0,30.00,West,270,0.0,0.0,84,0.26,,,0.26,WUHU21623XXSP,2013-09-12 08:29:00,
2013-09-12 04:34:00,69.1,64.3,30.00,West,270,0.0,0.0,85,0.28,,,0.28,WUHU21623XXSP,2013-09-12 08:34:00,
2013-09-12 04:39:00,69.1,64.3,30.00,West,270,0.0,0.0,85,0.28,,,0.28,WUHU21623XXSP,2013-09-12 08:39:00,
2013-09-12 04:44:00,69.1,64.3,30.00,WNW,292,0.0,0.0,85,0.30,,,0.30,WUHU21623XXSP,2013-09-12 08:44:00,
2013-09-12 04:49:00,69.1,64.7,30.00,WNW,292,0.0,0.0,86,0.30,,,0.30,WUHU21623XXSP,2013-09-12 08:49:00,
2013-09-12 04:54:00,69.1,64.7,30.00,WNW,292,0.0,0.0,86,0.30,,,0.30,WUHU21623XXSP,2013-09-12 08:54:00,
2013-09-12 04:59:00,69.1,64.7,30.00,WNW,292,0.0,0.0,86,0.32,,,0.32,WUHU21623XXSP,2013-09-12 08:59:00,
2013-09-12 05:04:00,69.1,64.7,30.00,WSW,247,0.0,0.0,86,0.32,,,0.32,WUHU21623XXSP,2013-09-12 09:04:00,
2013-09-12 05:09:00,69.1,65.0,30.00,WSW,247,0.0,0.0,87,0.32,,,0.32,WUHU21623XXSP,2013-09-12 09:09:00,
2013-09-12 05:14:00,69.1,65.0,30.00,WSW,247,0.0,0.0,87,0.32,,,0.32,WUHU21623XXSP,2013-09-12 09:14:00,
2013-09-12 05:19:00,69.1,65.0,29.99,WSW,247,0.0,0.0,87,0.14,,,0.32,WUHU21623XXSP,2013-09-12 09:19:00,
2013-09-12 05:24:00,69.1,65.0,29.99,WSW,247,0.0,0.0,87,0.09,,,0.35,WUHU21623XXSP,2013-09-12 09:24:00,
2013-09-12 05:29:00,69.1,65.0,29.99,WSW,247,0.0,0.0,87,0.09,,,0.35,WUHU21623XXSP,2013-09-12 09:29:00,
2013-09-12 05:34:00,69.1,65.3,29.99,WSW,247,0.0,0.0,88,0.07,,,0.35,WUHU21623XXSP,2013-09-12 09:34:00,
2013-09-12 05:39:00,69.1,65.3,29.99,WSW,247,0.0,0.0,88,0.07,,,0.35,WUHU21623XXSP,2013-09-12 09:39:00,
2013-09-12 05:44:00,69.1,65.3,30.00,WSW,247,0.0,0.0,88,0.05,,,0.35,WUHU21623XXSP,2013-09-12 09:44:00,
2013-09-12 05:49:00,69.1,65.3,30.00,WSW,247,0.0,0.0,88,0.05,,,0.35,WUHU21623XXSP,2013-09-12 09:49:00,
2013-09-12 05:54:00,69.1,65.3,30.00,WSW,247,0.0,0.0,88,0.05,,,0.35,WUHU21623XXSP,2013-09-12 09:54:00,
2013-09-12 05:59:00,69.1,65.3,30.00,WSW,247,0.0,0.0,88,0.03,,,0.35,WUHU21623XXSP,2013-09-12 09:59:00,
2013-09-12 06:04:00,68.9,65.2,30.00,WSW,247,0.0,0.0,88,0.03,,,0.35,WUHU21623XXSP,2013-09-12 10:04:00,
2013-09-12 06:09:00,68.9,65.2,30.00,SW,225,0.0,0.0,88,0.03,,,0.35,WUHU21623XXSP,2013-09-12 10:09:00,
2013-09-12 06:14:00,68.9,65.2,30.00,SW,225,0.0,0.0,88,0.03,,,0.35,WUHU21623XXSP,2013-09-12 10:14:00,
2013-09-12 06:19:00,68.9,65.2,30.00,SW,225,0.0,0.0,88,0.03,,,0.35,WUHU21623XXSP,2013-09-12 10:19:00,
2013-09-12 06:24:00,68.7,65.0,30.00,WSW,247,0.0,0.0,88,0.02,,,0.37,WUHU21623XXSP,2013-09-12 10:24:00,
2013-09-12 06:29:00,68.7,65.0,30.01,WSW,247,0.0,0.0,88,0.02,,,0.37,WUHU21623XXSP,2013-09-12 10:29:00,
2013-09-12 06:34:00,68.7,65.0,30.01,WSW,247,0.0,0.0,88,0.02,,,0.37,WUHU21623XXSP,2013-09-12 10:34:00,
2013-09-12 06:39:00,68.7,65.0,30.01,WSW,247,0.0,0.0,88,0.02,,,0.37,WUHU21623XXSP,2013-09-12 10:39:00,
2013-09-12 06:44:00,68.7,65.0,30.01,WSW,247,0.0,0.0,88,0.02,,,0.37,WUHU21623XXSP,2013-09-12 10:44:00,
2013-09-12 06:49:00,68.7,65.0,30.01,SW,225,0.0,0.0,88,0.04,,,0.39,WUHU21623XXSP,2013-09-12 10:49:00,
2013-09-12 06:54:00,68.7,65.0,30.01,SW,225,0.0,0.0,88,0.04,,,0.39,WUHU21623XXSP,2013-09-12 10:54:00,
2013-09-12 06:59:00,68.7,65.3,30.01,SW,225,0.0,0.0,89,0.04,,,0.39,WUHU21623XXSP,2013-09-12 10:59:00,
2013-09-12 07:04:00,68.7,65.3,30.01,SW,225,0.0,0.0,89,0.04,,,0.39,WUHU21623XXSP,2013-09-12 11:04:00,
2013-09-12 07:09:00,68.7,65.3,30.01,WSW,247,0.0,0.0,89,0.04,,,0.39,WUHU21623XXSP,2013-09-12 11:09:00,
2013-09-12 07:14:00,68.7,65.3,30.01,WSW,247,0.0,0.0,89,0.04,,,0.39,WUHU21623XXSP,2013-09-12 11:14:00,
2013-09-12 07:19:00,68.5,65.1,30.01,WSW,247,0.0,0.0,89,0.04,,,0.39,WUHU21623XXSP,2013-09-12 11:19:00,
2013-09-12 07:24:00,68.7,65.3,30.01,NNW,337,0.0,0.0,89,0.02,,,0.39,WUHU21623XXSP,2013-09-12 11:24:00,
2013-09-12 07:29:00,68.7,65.3,30.01,NNW,337,0.0,0.0,89,0.02,,,0.39,WUHU21623XXSP,2013-09-12 11:29:00,
2013-09-12 07:33:00,68.7,65.3,30.01,NNW,337,0.0,0.0,89,0.02,,,0.39,WUHU21623XXSP,2013-09-12 11:33:00,
2013-09-12 07:38:00,68.7,65.3,30.00,NNW,337,0.0,0.0,89,0.02,,,0.39,WUHU21623XXSP,2013-09-12 11:38:00,
2013-09-12 07:43:00,68.7,65.3,30.00,NNW,337,0.0,0.0,89,0.02,,,0.39,WUHU21623XXSP,2013-09-12 11:43:00,
2013-09-12 07:48:00,68.7,65.3,30.00,NNW,337,0.0,0.0,89,0.00,,,0.39,WUHU21623XXSP,2013-09-12 11:48:00,
2013-09-12 07:53:00,68.7,65.3,30.00,NNW,337,0.0,0.0,89,0.00,,,0.39,WUHU21623XXSP,2013-09-12 11:53:00,
2013-09-12 07:58:00,68.7,65.3,30.00,NNW,337,0.0,0.0,89,0.00,,,0.39,WUHU21623XXSP,2013-09-12 11:58:00,
2013-09-12 08:03:00,68.7,65.3,30.00,NNW,337,0.0,0.0,89,0.00,,,0.39,WUHU21623XXSP,2013-09-12 12:03:00,
2013-09-12 08:08:00,68.7,65.3,30.00,North,0,0.0,0.0,89,0.00,,,0.39,WUHU21623XXSP,2013-09-12 12:08:00,
2013-09-12 08:13:00,68.7,65.3,29.99,NNW,337,0.0,0.0,89,0.00,,,0.39,WUHU21623XXSP,2013-09-12 12:13:00,
2013-09-12 08:18:00,68.7,65.3,29.99,NNW,337,0.0,0.0,89,0.00,,,0.39,WUHU21623XXSP,2013-09-12 12:18:00,
2013-09-12 08:23:00,68.7,65.3,29.99,NNW,337,0.0,0.0,89,0.00,,,0.39,WUHU21623XXSP,2013-09-12 12:23:00,
2013-09-12 08:28:00,68.7,65.3,30.00,NNW,337,0.0,0.0,89,0.00,,,0.39,WUHU21623XXSP,2013-09-12 12:28:00,
2013-09-12 08:33:00,68.7,65.3,30.00,NW,315,0.0,0.0,89,0.02,,,0.41,WUHU21623XXSP,2013-09-12 12:33:00,
2013-09-12 08:38:00,68.7,65.3,30.00,NW,315,0.0,0.0,89,0.02,,,0.41,WUHU21623XXSP,2013-09-12 12:38:00,
2013-09-12 08:43:00,68.7,65.3,30.00,West,270,0.0,0.0,89,0.02,,,0.41,WUHU21623XXSP,2013-09-12 12:43:00,
2013-09-12 08:48:00,68.7,65.3,29.99,West,270,0.0,0.0,89,0.02,,,0.41,WUHU21623XXSP,2013-09-12 12:48:00,
2013-09-12 08:53:00,68.7,65.3,30.00,West,270,0.0,0.0,89,0.02,,,0.41,WUHU21623XXSP,2013-09-12 12:53:00,
2013-09-12 08:58:00,68.7,65.3,29.99,West,270,0.0,0.0,89,0.02,,,0.41,WUHU21623XXSP,2013-09-12 12:58:00,
2013-09-12 09:03:00,68.9,65.5,30.00,West,270,0.0,0.0,89,0.02,,,0.41,WUHU21623XXSP,2013-09-12 13:03:00,
2013-09-12 09:08:00,68.9,65.5,30.00,West,270,0.0,0.0,89,0.02,,,0.41,WUHU21623XXSP,2013-09-12 13:08:00,
2013-09-12 09:13:00,68.9,65.5,30.00,West,270,0.0,0.0,89,0.02,,,0.41,WUHU21623XXSP,2013-09-12 13:13:00,
2013-09-12 09:18:00,68.9,65.5,30.00,West,270,0.0,0.0,89,0.02,,,0.41,WUHU21623XXSP,2013-09-12 13:18:00,
2013-09-12 09:23:00,68.9,65.5,30.01,West,270,0.0,0.0,89,0.02,,,0.41,WUHU21623XXSP,2013-09-12 13:23:00,
2013-09-12 09:28:00,68.9,65.5,30.00,West,270,0.0,0.0,89,0.02,,,0.41,WUHU21623XXSP,2013-09-12 13:28:00,
2013-09-12 09:33:00,69.1,65.7,30.01,West,270,0.0,0.0,89,0.00,,,0.41,WUHU21623XXSP,2013-09-12 13:33:00,
2013-09-12 09:38:00,69.1,65.7,30.01,WSW,247,0.0,0.0,89,0.00,,,0.41,WUHU21623XXSP,2013-09-12 13:38:00,
2013-09-12 09:43:00,69.1,65.7,30.01,WSW,247,0.0,0.0,89,0.00,,,0.41,WUHU21623XXSP,2013-09-12 13:43:00,
2013-09-12 09:48:00,69.1,65.7,30.01,WSW,247,0.0,0.0,89,0.00,,,0.41,WUHU21623XXSP,2013-09-12 13:48:00,
2013-09-12 09:53:00,69.4,66.0,30.01,WSW,247,0.0,0.0,89,0.00,,,0.41,WUHU21623XXSP,2013-09-12 13:53:00,
2013-09-12 09:58:00,69.4,66.4,30.01,WNW,292,0.0,0.0,90,0.00,,,0.41,WUHU21623XXSP,2013-09-12 13:58:00,
2013-09-12 10:03:00,69.4,66.4,30.01,WNW,292,0.0,0.0,90,0.00,,,0.41,WUHU21623XXSP,2013-09-12 14:03:00,
2013-09-12 10:08:00,69.4,66.4,30.01,WNW,292,0.0,0.0,90,0.00,,,0.41,WUHU21623XXSP,2013-09-12 14:08:00,
2013-09-12 10:13:00,69.4,66.4,30.01,WNW,292,0.0,0.0,90,0.00,,,0.41,WUHU21623XXSP,2013-09-12 14:13:00,
2013-09-12 10:18:00,69.6,66.6,30.01,WNW,292,0.0,0.0,90,0.00,,,0.41,WUHU21623XXSP,2013-09-12 14:18:00,
2013-09-12 10:23:00,69.6,66.6,30.02,WNW,292,0.0,0.0,90,0.00,,,0.41,WUHU21623XXSP,2013-09-12 14:23:00,
2013-09-12 10:28:00,70.0,66.9,30.01,WNW,292,0.0,0.0,90,0.00,,,0.41,WUHU21623XXSP,2013-09-12 14:28:00,
2013-09-12 10:33:00,70.0,66.9,30.01,WNW,292,0.0,0.0,90,0.00,,,0.41,WUHU21623XXSP,2013-09-12 14:33:00,
2013-09-12 10:38:00,70.0,66.9,30.02,WNW,292,0.0,0.0,90,0.00,,,0.41,WUHU21623XXSP,2013-09-12 14:38:00,
2013-09-12 10:43:00,70.0,66.9,30.02,WNW,292,0.0,0.0,90,0.00,,,0.41,WUHU21623XXSP,2013-09-12 14:43:00,
2013-09-12 10:48:00,70.0,66.9,30.02,WNW,292,0.0,0.0,90,0.00,,,0.41,WUHU21623XXSP,2013-09-12 14:48:00,
2013-09-12 10:53:00,70.0,66.9,30.01,WNW,292,0.0,0.0,90,0.00,,,0.41,WUHU21623XXSP,2013-09-12 14:53:00,
2013-09-12 10:58:00,70.0,66.9,30.01,WNW,292,0.0,0.0,90,0.00,,,0.41,WUHU21623XXSP,2013-09-12 14:58:00,
2013-09-12 11:03:00,69.8,66.7,30.02,WNW,292,0.0,0.0,90,0.00,,,0.41,WUHU21623XXSP,2013-09-12 15:03:00,
2013-09-12 11:08:00,69.7,66.6,30.02,WNW,292,0.0,0.0,90,0.00,,,0.41,WUHU21623XXSP,2013-09-12 15:08:00,
2013-09-12 11:13:00,69.4,66.3,30.02,WNW,292,0.0,0.0,90,0.00,,,0.41,WUHU21623XXSP,2013-09-12 15:13:00,
2013-09-12 11:18:00,69.1,66.0,30.02,WNW,292,0.0,0.0,90,0.00,,,0.41,WUHU21623XXSP,2013-09-12 15:18:00,
2013-09-12 11:23:00,68.9,65.8,30.01,WNW,292,0.0,0.0,90,0.00,,,0.41,WUHU21623XXSP,2013-09-12 15:23:00,
2013-09-12 11:28:00,68.6,65.5,30.02,WNW,292,0.0,0.0,90,0.00,,,0.41,WUHU21623XXSP,2013-09-12 15:28:00,
2013-09-12 11:33:00,68.3,65.2,30.02,WNW,292,0.0,0.0,90,0.00,,,0.41,WUHU21623XXSP,2013-09-12 15:33:00,
2013-09-12 11:38:00,68.0,64.9,30.01,WNW,292,0.0,0.0,90,0.00,,,0.41,WUHU21623XXSP,2013-09-12 15:38:00,
2013-09-12 11:43:00,67.7,64.6,30.01,WNW,292,0.0,0.0,90,0.00,,,0.41,WUHU21623XXSP,2013-09-12 15:43:00,
2013-09-12 11:48:00,67.4,64.4,30.01,SSW,202,0.0,0.0,90,0.00,,,0.41,WUHU21623XXSP,2013-09-12 15:48:00,
2013-09-12 11:53:00,67.1,64.1,30.02,SSW,202,0.0,0.0,90,0.00,,,0.41,WUHU21623XXSP,2013-09-12 15:53:00,
2013-09-12 11:58:00,66.9,63.8,30.02,West,270,0.0,0.0,90,0.00,,,0.41,WUHU21623XXSP,2013-09-12 15:58:00,
2013-09-12 12:03:00,66.6,63.6,30.02,West,270,0.0,0.0,90,0.00,,,0.41,WUHU21623XXSP,2013-09-12 16:03:00,
2013-09-12 12:08:00,66.4,63.3,30.02,WNW,292,0.0,0.0,90,0.00,,,0.41,WUHU21623XXSP,2013-09-12 16:08:00,
2013-09-12 12:13:00,66.1,63.1,30.02,WNW,292,0.0,0.0,90,0.00,,,0.41,WUHU21623XXSP,2013-09-12 16:13:00,
2013-09-12 12:18:00,65.9,62.8,30.02,WNW,292,0.0,0.0,90,0.00,,,0.41,WUHU21623XXSP,2013-09-12 16:18:00,
2013-09-12 12:23:00,65.8,62.5,30.02,WNW,292,0.0,0.0,89,0.00,,,0.41,WUHU21623XXSP,2013-09-12 16:23:00,
2013-09-12 12:28:00,65.8,62.5,30.02,WNW,292,0.0,0.0,89,0.00,,,0.41,WUHU21623XXSP,2013-09-12 16:28:00,
2013-09-12 12:33:00,65.6,62.3,30.01,WNW,292,0.0,0.0,89,0.00,,,0.41,WUHU21623XXSP,2013-09-12 16:33:00,
2013-09-12 12:38:00,65.4,62.1,30.01,WNW,292,0.0,0.0,89,0.00,,,0.41,WUHU21623XXSP,2013-09-12 16:38:00,
2013-09-12 12:43:00,65.2,61.6,30.01,WNW,292,0.0,0.0,88,0.00,,,0.41,WUHU21623XXSP,2013-09-12 16:43:00,
2013-09-12 12:48:00,65.2,61.6,30.01,WNW,292,0.0,0.0,88,0.00,,,0.41,WUHU21623XXSP,2013-09-12 16:48:00,
2013-09-12 12:53:00,65.0,61.4,30.01,WNW,292,0.0,0.0,88,0.00,,,0.41,WUHU21623XXSP,2013-09-12 16:53:00,
2013-09-12 12:58:00,64.9,60.9,30.01,WNW,292,0.0,0.0,87,0.00,,,0.41,WUHU21623XXSP,2013-09-12 16:58:00,
2013-09-12 13:03:00,64.7,60.8,30.00,WNW,292,0.0,0.0,87,0.00,,,0.41,WUHU21623XXSP,2013-09-12 17:03:00,
2013-09-12 13:08:00,64.6,60.3,30.00,NW,315,0.0,0.0,86,0.00,,,0.41,WUHU21623XXSP,2013-09-12 17:08:00,
2013-09-12 13:13:00,64.5,60.2,30.00,NW,315,0.0,0.0,86,0.00,,,0.41,WUHU21623XXSP,2013-09-12 17:13:00,
2013-09-12 13:18:00,64.7,60.7,30.00,NW,315,0.0,0.0,87,0.00,,,0.41,WUHU21623XXSP,2013-09-12 17:18:00,
2013-09-12 13:23:00,64.8,60.8,30.00,NW,315,0.0,0.0,87,0.00,,,0.41,WUHU21623XXSP,2013-09-12 17:23:00,
2013-09-12 13:28:00,64.7,60.7,30.00,NW,315,0.0,0.0,87,0.00,,,0.41,WUHU21623XXSP,2013-09-12 17:28:00,
2013-09-12 13:33:00,65.0,60.4,30.00,SSW,202,0.0,0.0,85,0.00,,,0.41,WUHU21623XXSP,2013-09-12 17:33:00,
2013-09-12 13:38:00,64.9,60.3,30.00,WNW,292,0.0,0.0,85,0.00,,,0.41,WUHU21623XXSP,2013-09-12 17:38:00,
2013-09-12 13:43:00,65.6,61.0,30.00,WNW,292,0.0,0.0,85,0.00,,,0.41,WUHU21623XXSP,2013-09-12 17:43:00,
2013-09-12 13:48:00,65.7,60.5,30.00,WNW,292,0.0,0.0,83,0.00,,,0.41,WUHU21623XXSP,2013-09-12 17:48:00,
2013-09-12 13:53:00,66.0,60.4,29.99,WNW,292,0.0,0.0,82,0.00,,,0.41,WUHU21623XXSP,2013-09-12 17:53:00,
2013-09-12 13:58:00,66.0,60.4,29.99,WNW,292,0.0,0.0,82,0.00,,,0.41,WUHU21623XXSP,2013-09-12 17:58:00,
2013-09-12 14:03:00,66.4,60.8,29.98,NW,315,0.0,0.0,82,0.00,,,0.41,WUHU21623XXSP,2013-09-12 18:03:00,
2013-09-12 14:08:00,66.4,60.8,29.98,NW,315,0.0,0.0,82,0.00,,,0.41,WUHU21623XXSP,2013-09-12 18:08:00,
2013-09-12 14:13:00,66.4,60.8,29.98,NW,315,0.0,0.0,82,0.00,,,0.41,WUHU21623XXSP,2013-09-12 18:13:00,
2013-09-12 14:18:00,66.5,60.9,29.98,NW,315,0.0,0.0,82,0.00,,,0.41,WUHU21623XXSP,2013-09-12 18:18:00,
2013-09-12 14:23:00,67.6,59.9,29.98,NW,315,0.0,0.0,76,0.00,,,0.41,WUHU21623XXSP,2013-09-12 18:23:00,
2013-09-12 14:28:00,67.9,60.2,29.98,NW,315,0.0,0.0,76,0.00,,,0.41,WUHU21623XXSP,2013-09-12 18:28:00,
2013-09-12 14:33:00,68.0,60.3,29.97,NW,315,0.0,0.0,76,0.00,,,0.41,WUHU21623XXSP,2013-09-12 18:33:00,
2013-09-12 14:37:00,68.1,60.3,29.97,North,0,0.0,0.0,76,0.00,,,0.41,WUHU21623XXSP,2013-09-12 18:37:00,
2013-09-12 14:38:00,68.1,60.3,29.97,NW,315,0.0,0.0,76,0.00,,,0.41,WUHU21623XXSP,2013-09-12 18:38:00,
2013-09-12 14:43:00,68.1,60.3,29.97,North,0,0.0,0.0,76,0.00,,,0.41,WUHU21623XXSP,2013-09-12 18:43:00,
2013-09-12 15:00:00,69.8,59.0,29.96,North,0,0.0,0.0,68,0.00,,,0.41,WUHU21623XXSP,2013-09-12 19:00:00,
2013-09-12 15:05:00,70.0,59.1,29.96,West,270,0.0,0.0,68,0.00,,,0.41,WUHU21623XXSP,2013-09-12 19:05:00,
2013-09-12 15:10:00,70.4,59.5,29.95,NW,315,0.0,0.0,68,0.00,,,0.41,WUHU21623XXSP,2013-09-12 19:10:00,
2013-09-12 15:15:00,70.6,58.8,29.95,SW,225,0.0,0.0,66,0.00,,,0.41,WUHU21623XXSP,2013-09-12 19:15:00,
2013-09-12 15:20:00,70.7,59.0,29.95,SW,225,0.0,0.0,66,0.00,,,0.41,WUHU21623XXSP,2013-09-12 19:20:00,
2013-09-12 15:25:00,71.4,59.3,29.94,WSW,247,0.0,0.0,65,0.00,,,0.41,WUHU21623XXSP,2013-09-12 19:25:00,
2013-09-12 15:30:00,71.7,59.5,29.94,WSW,247,0.0,0.0,65,0.00,,,0.41,WUHU21623XXSP,2013-09-12 19:30:00,
2013-09-12 15:35:00,71.9,59.7,29.93,WSW,247,0.0,0.0,65,0.00,,,0.41,WUHU21623XXSP,2013-09-12 19:35:00,
2013-09-12 15:39:00,72.1,59.9,29.93,North,0,0.0,0.0,65,0.00,,,0.41,WUHU21623XXSP,2013-09-12 19:39:00,
2013-09-12 15:40:00,72.1,59.9,29.93,WSW,247,0.0,0.0,65,0.00,,,0.41,WUHU21623XXSP,2013-09-12 19:40:00,
2013-09-12 15:45:00,72.1,59.9,29.93,North,0,0.0,0.0,65,0.00,,,0.41,WUHU21623XXSP,2013-09-12 19:45:00,
2013-09-12 15:50:00,73.2,60.1,29.93,North,0,0.0,0.0,63,0.00,,,0.41,WUHU21623XXSP,2013-09-12 19:50:00,
2013-09-12 15:55:00,73.5,60.3,29.93,SW,225,0.0,0.0,63,0.00,,,0.41,WUHU21623XXSP,2013-09-12 19:55:00,
2013-09-12 16:00:00,73.7,60.1,29.93,WSW,247,0.0,0.0,62,0.00,,,0.41,WUHU21623XXSP,2013-09-12 20:00:00,
2013-09-12 16:05:00,74.5,60.4,29.93,WSW,247,0.0,0.0,61,0.00,,,0.41,WUHU21623XXSP,2013-09-12 20:05:00,
2013-09-12 16:10:00,75.0,59.9,29.93,NNW,337,0.0,0.0,59,0.00,,,0.41,WUHU21623XXSP,2013-09-12 20:10:00,
2013-09-12 16:15:00,75.1,60.0,29.93,NNW,337,0.0,0.0,59,0.00,,,0.41,WUHU21623XXSP,2013-09-12 20:15:00,
2013-09-12 16:20:00,75.5,60.4,29.92,NNW,337,0.0,0.0,59,0.00,,,0.41,WUHU21623XXSP,2013-09-12 20:20:00,
2013-09-12 16:25:00,75.8,60.7,29.92,NNW,337,0.0,0.0,59,0.00,,,0.41,WUHU21623XXSP,2013-09-12 20:25:00,
2013-09-12 16:30:00,76.6,61.4,29.92,NNW,337,0.0,0.0,59,0.00,,,0.41,WUHU21623XXSP,2013-09-12 20:30:00,
2013-09-12 16:35:00,77.1,61.4,29.92,NNW,337,0.0,0.0,58,0.00,,,0.41,WUHU21623XXSP,2013-09-12 20:35:00,
2013-09-12 16:40:00,77.4,61.7,29.91,NNW,337,0.0,0.0,58,0.00,,,0.41,WUHU21623XXSP,2013-09-12 20:40:00,
2013-09-12 16:45:00,77.7,62.0,29.91,NNW,337,0.0,0.0,58,0.00,,,0.41,WUHU21623XXSP,2013-09-12 20:45:00,
2013-09-12 16:50:00,78.0,62.3,29.90,NNW,337,0.0,0.0,58,0.00,,,0.41,WUHU21623XXSP,2013-09-12 20:50:00,
2013-09-12 16:52:00,78.1,62.4,29.90,North,0,0.0,0.0,58,0.00,,,0.41,WUHU21623XXSP,2013-09-12 20:52:00,
2013-09-12 16:55:00,78.1,62.4,29.90,NNW,337,0.0,0.0,58,0.00,,,0.41,WUHU21623XXSP,2013-09-12 20:55:00,
2013-09-12 17:00:00,78.1,62.4,29.90,North,0,0.0,0.0,58,0.00,,,0.41,WUHU21623XXSP,2013-09-12 21:00:00,
2013-09-12 17:14:00,78.1,62.6,29.89,North,0,0.0,0.0,59,0.00,,,0.41,WUHU21623XXSP,2013-09-12 21:14:00,
2013-09-12 17:19:00,78.1,62.6,29.90,WSW,247,0.0,0.0,59,0.00,,,0.41,WUHU21623XXSP,2013-09-12 21:19:00,
2013-09-12 17:24:00,78.1,62.1,29.89,WSW,247,0.0,0.0,58,0.00,,,0.41,WUHU21623XXSP,2013-09-12 21:24:00,
2013-09-12 17:29:00,78.1,62.1,29.89,NW,315,0.0,0.0,58,0.00,,,0.41,WUHU21623XXSP,2013-09-12 21:29:00,
2013-09-12 17:34:00,77.7,61.8,29.89,WSW,247,0.0,0.0,58,0.00,,,0.41,WUHU21623XXSP,2013-09-12 21:34:00,
2013-09-12 17:39:00,77.5,61.6,29.89,WSW,247,0.0,0.0,58,0.00,,,0.41,WUHU21623XXSP,2013-09-12 21:39:00,
2013-09-12 17:44:00,77.2,61.7,29.89,NNW,337,0.0,0.0,59,0.00,,,0.41,WUHU21623XXSP,2013-09-12 21:44:00,
2013-09-12 17:49:00,77.2,61.7,29.89,NNW,337,0.0,0.0,59,0.00,,,0.41,WUHU21623XXSP,2013-09-12 21:49:00,
2013-09-12 17:55:00,76.5,61.6,29.89,SW,225,0.0,0.0,60,0.00,,,0.41,WUHU21623XXSP,2013-09-12 21:55:00,
2013-09-12 17:59:00,76.1,61.3,29.89,SW,225,0.0,0.0,60,0.00,,,0.41,WUHU21623XXSP,2013-09-12 21:59:00,
2013-09-12 18:05:00,76.1,61.7,29.88,SW,225,0.0,0.0,61,0.00,,,0.41,WUHU21623XXSP,2013-09-12 22:05:00,
2013-09-12 18:10:00,76.1,61.7,29.89,SW,225,0.0,0.0,61,0.00,,,0.41,WUHU21623XXSP,2013-09-12 22:10:00,
2013-09-12 18:15:00,76.1,62.1,29.89,SW,225,0.0,0.0,62,0.00,,,0.41,WUHU21623XXSP,2013-09-12 22:15:00,
2013-09-12 18:20:00,76.1,62.1,29.89,SW,225,0.0,0.0,62,0.00,,,0.41,WUHU21623XXSP,2013-09-12 22:20:00,
2013-09-12 18:25:00,75.9,62.0,29.89,NNE,22,0.0,0.0,62,0.00,,,0.41,WUHU21623XXSP,2013-09-12 22:25:00,
2013-09-12 18:30:00,75.9,62.0,29.90,NNE,22,0.0,0.0,62,0.00,,,0.41,WUHU21623XXSP,2013-09-12 22:30:00,
2013-09-12 18:35:00,76.3,62.3,29.90,NNE,22,0.0,0.0,62,0.00,,,0.41,WUHU21623XXSP,2013-09-12 22:35:00,
2013-09-12 18:40:00,76.3,61.4,29.90,NNE,22,0.0,0.0,60,0.00,,,0.41,WUHU21623XXSP,2013-09-12 22:40:00,
2013-09-12 18:44:00,76.3,61.4,29.90,NNE,22,0.0,0.0,60,0.00,,,0.41,WUHU21623XXSP,2013-09-12 22:44:00,
2013-09-12 18:49:00,76.1,61.3,29.90,NNE,22,0.0,0.0,60,0.00,,,0.41,WUHU21623XXSP,2013-09-12 22:49:00,
2013-09-12 18:54:00,75.9,61.1,29.90,NW,315,0.0,0.0,60,0.00,,,0.41,WUHU21623XXSP,2013-09-12 22:54:00,
2013-09-12 18:59:00,75.7,60.9,29.91,NW,315,0.0,0.0,60,0.00,,,0.41,WUHU21623XXSP,2013-09-12 22:59:00,
2013-09-12 19:04:00,75.7,60.9,29.92,NNW,337,0.0,0.0,60,0.00,,,0.41,WUHU21623XXSP,2013-09-12 23:04:00,
2013-09-12 19:09:00,75.7,60.9,29.92,NNW,337,0.0,0.0,60,0.00,,,0.41,WUHU21623XXSP,2013-09-12 23:09:00,
2013-09-12 19:15:00,75.7,60.9,29.92,NNW,337,0.0,0.0,60,0.00,,,0.41,WUHU21623XXSP,2013-09-12 23:15:00,
2013-09-12 19:20:00,75.7,60.9,29.92,NNW,337,0.0,0.0,60,0.00,,,0.41,WUHU21623XXSP,2013-09-12 23:20:00,
2013-09-12 19:22:00,75.7,60.9,29.92,North,0,0.0,0.0,60,0.00,,,0.41,WUHU21623XXSP,2013-09-12 23:22:00,
2013-09-12 19:25:00,75.7,60.9,29.92,NNW,337,0.0,0.0,60,0.00,,,0.41,WUHU21623XXSP,2013-09-12 23:25:00,
2013-09-12 19:30:00,75.7,60.9,29.92,North,0,0.0,0.0,60,0.00,,,0.41,WUHU21623XXSP,2013-09-12 23:30:00,